createdAt,value
2022-11-04T00:02:09.309Z,17.76
2022-11-04T00:04:36.569Z,17.84
2022-11-04T00:07:23.553Z,17.90
2022-11-04T00:09:50.395Z,17.92
2022-11-04T00:12:26.078Z,17.81
2022-11-04T00:14:53.816Z,17.81
2022-11-04T00:17:22.807Z,17.66
2022-11-04T00:20:12.637Z,17.40
2022-11-04T00:23:00.506Z,17.55
2022-11-04T00:25:46.459Z,17.51
2022-11-04T00:28:37.080Z,17.72
2022-11-04T00:31:24.657Z,17.80
2022-11-04T00:33:52.880Z,17.73
2022-11-04T00:36:19.654Z,17.57
2022-11-04T00:38:46.805Z,17.49
2022-11-04T00:41:30.084Z,17.34
2022-11-04T00:44:05.377Z,17.28
2022-11-04T00:46:33.873Z,17.33
2022-11-04T00:49:00.817Z,17.25
2022-11-04T00:51:28.669Z,17.21
2022-11-04T00:53:58.042Z,17.18
2022-11-04T00:56:24.961Z,16.99
2022-11-04T00:58:51.937Z,16.87
2022-11-04T01:01:19.743Z,17.00
2022-11-04T01:03:48.837Z,16.88
2022-11-04T01:06:16.532Z,16.80
2022-11-04T01:08:43.585Z,16.82
2022-11-04T01:11:10.935Z,16.80
2022-11-04T01:13:38.737Z,17.02
2022-11-04T01:16:08.536Z,16.73
2022-11-04T01:18:35.795Z,16.73
2022-11-04T01:21:04.849Z,16.75
2022-11-04T01:23:31.991Z,16.80
2022-11-04T01:25:58.712Z,16.75
2022-11-04T01:28:25.871Z,16.87
2022-11-04T01:30:53.604Z,16.89
2022-11-04T01:33:20.412Z,16.90
2022-11-04T01:35:47.117Z,16.73
2022-11-04T01:38:13.901Z,16.44
2022-11-04T01:40:41.251Z,16.62
2022-11-04T01:43:22.399Z,16.64
2022-11-04T01:45:58.482Z,16.67
2022-11-04T01:48:31.440Z,16.59
2022-11-04T01:51:00.097Z,16.46
2022-11-04T01:53:33.102Z,16.49
2022-11-04T01:56:04.417Z,16.41
2022-11-04T01:58:35.302Z,16.33
2022-11-04T02:01:02.789Z,16.19
2022-11-04T02:03:38.402Z,16.22
2022-11-04T02:06:06.466Z,16.11
2022-11-04T02:08:33.954Z,15.74
2022-11-04T02:11:02.793Z,15.95
2022-11-04T02:13:32.786Z,15.94
2022-11-04T02:16:24.788Z,15.94
2022-11-04T02:19:17.025Z,16.20
2022-11-04T02:22:05.070Z,16.19
2022-11-04T02:24:34.426Z,15.69
2022-11-04T02:27:19.687Z,16.00
2022-11-04T02:30:05.323Z,16.09
2022-11-04T02:32:55.402Z,16.14
2022-11-04T02:35:50.453Z,15.98
2022-11-04T02:38:53.380Z,15.89
2022-11-04T02:41:41.674Z,15.56
2022-11-04T02:44:20.674Z,15.65
2022-11-04T02:47:05.202Z,15.42
2022-11-04T02:49:38.653Z,15.54
2022-11-04T02:52:09.711Z,15.55
2022-11-04T02:54:43.047Z,15.65
2022-11-04T02:57:16.882Z,15.64
2022-11-04T02:59:53.875Z,15.55
2022-11-04T03:02:28.022Z,15.72
2022-11-04T03:04:57.471Z,15.71
2022-11-04T03:07:29.192Z,15.69
2022-11-04T03:10:02.605Z,15.55
2022-11-04T03:12:56.273Z,15.58
2022-11-04T03:15:28.921Z,15.48
2022-11-04T03:18:02.537Z,15.45
2022-11-04T03:20:31.693Z,15.35
2022-11-04T03:23:00.301Z,15.17
2022-11-04T03:25:32.577Z,15.25
2022-11-04T03:28:21.805Z,14.51
2022-11-04T03:30:54.477Z,14.26
2022-11-04T03:33:27.349Z,14.58
2022-11-04T03:35:54.420Z,14.39
2022-11-04T03:38:22.749Z,14.04
2022-11-04T03:40:50.553Z,14.36
2022-11-04T03:43:26.005Z,14.65
2022-11-04T03:45:53.929Z,14.31
2022-11-04T03:48:22.121Z,14.65
2022-11-04T03:50:49.926Z,14.64
2022-11-04T03:53:21.684Z,14.47
2022-11-04T03:56:09.669Z,14.53
2022-11-04T03:58:42.250Z,13.69
2022-11-04T04:01:17.911Z,14.31
2022-11-04T04:03:55.311Z,14.56
2022-11-04T04:06:29.751Z,14.59
2022-11-04T04:09:09.604Z,14.62
2022-11-04T04:11:44.203Z,14.68
2022-11-04T04:14:39.736Z,14.81
2022-11-04T04:17:34.476Z,14.72
2022-11-04T04:20:14.269Z,14.26
2022-11-04T04:22:47.002Z,14.25
2022-11-04T04:25:35.520Z,14.39
2022-11-04T04:28:04.797Z,14.41
2022-11-04T04:30:32.803Z,14.40
2022-11-04T04:33:13.750Z,14.27
2022-11-04T04:35:44.623Z,14.33
2022-11-04T04:38:56.029Z,14.37
2022-11-04T04:41:49.909Z,13.11
2022-11-04T04:44:41.454Z,13.89
2022-11-04T04:47:10.087Z,14.19
2022-11-04T04:49:36.933Z,14.38
2022-11-04T04:52:07.355Z,14.34
2022-11-04T04:54:34.242Z,14.18
2022-11-04T04:57:00.964Z,14.42
2022-11-04T04:59:27.898Z,14.52
2022-11-04T05:01:54.608Z,14.56
2022-11-04T05:04:21.584Z,14.61
2022-11-04T05:06:48.248Z,14.59
2022-11-04T05:09:15.056Z,14.71
2022-11-04T05:11:41.769Z,14.66
2022-11-04T05:14:08.622Z,14.65
2022-11-04T05:16:40.401Z,14.52
2022-11-04T05:19:08.024Z,14.45
2022-11-04T05:21:34.965Z,14.59
2022-11-04T05:24:01.881Z,14.68
2022-11-04T05:26:28.624Z,14.72
2022-11-04T05:28:55.355Z,14.73
2022-11-04T05:31:22.395Z,14.71
2022-11-04T05:33:49.400Z,14.81
2022-11-04T05:36:17.189Z,14.70
2022-11-04T05:38:44.490Z,14.71
2022-11-04T05:41:25.710Z,14.72
2022-11-04T05:43:54.099Z,15.06
2022-11-04T05:46:21.450Z,15.05
2022-11-04T05:48:48.587Z,15.11
2022-11-04T05:51:17.919Z,14.93
2022-11-04T05:53:44.702Z,14.96
2022-11-04T05:56:13.544Z,14.93
2022-11-04T05:58:40.409Z,14.87
2022-11-04T06:01:46.161Z,14.99
2022-11-04T06:04:15.907Z,14.95
2022-11-04T06:06:42.707Z,15.12
2022-11-04T06:09:09.953Z,15.03
2022-11-04T06:11:37.720Z,15.10
2022-11-04T06:14:04.871Z,15.35
2022-11-04T06:16:31.810Z,15.42
2022-11-04T06:19:01.631Z,15.37
2022-11-04T06:21:33.636Z,15.52
2022-11-04T06:24:00.684Z,15.01
2022-11-04T06:26:30.769Z,15.50
2022-11-04T06:28:57.733Z,15.42
2022-11-04T06:31:24.463Z,14.99
2022-11-04T06:33:51.380Z,15.08
2022-11-04T06:36:18.143Z,14.75
2022-11-04T06:38:45.457Z,15.01
2022-11-04T06:41:14.841Z,15.24
2022-11-04T06:43:42.011Z,15.17
2022-11-04T06:46:24.044Z,15.41
2022-11-04T06:48:51.012Z,15.46
2022-11-04T06:51:17.682Z,15.54
2022-11-04T06:53:44.506Z,15.56
2022-11-04T06:56:11.352Z,15.69
2022-11-04T06:58:38.157Z,15.52
2022-11-04T07:01:09.227Z,15.69
2022-11-04T07:03:40.784Z,16.06
2022-11-04T07:06:09.018Z,16.37
2022-11-04T07:08:36.071Z,16.36
2022-11-04T07:11:03.803Z,15.74
2022-11-04T07:13:30.833Z,16.38
2022-11-04T07:15:58.138Z,16.29
2022-11-04T07:18:25.012Z,16.53
2022-11-04T07:20:52.234Z,16.72
2022-11-04T07:23:19.345Z,16.76
2022-11-04T07:25:46.099Z,16.79
2022-11-04T07:28:13.307Z,17.04
2022-11-04T07:30:40.239Z,17.26
2022-11-04T07:33:07.090Z,16.31
2022-11-04T07:35:33.879Z,17.11
2022-11-04T07:38:00.842Z,16.94
2022-11-04T07:40:27.556Z,16.83
2022-11-04T07:42:54.233Z,17.33
2022-11-04T07:45:34.524Z,17.35
2022-11-04T07:48:01.261Z,17.01
2022-11-04T07:50:28.141Z,18.10
2022-11-04T07:52:55.130Z,17.61
2022-11-04T07:55:22.033Z,18.27
2022-11-04T07:57:48.812Z,17.54
2022-11-04T08:00:16.611Z,17.79
2022-11-04T08:02:47.013Z,18.50
2022-11-04T08:05:14.550Z,18.78
2022-11-04T08:07:42.742Z,18.63
2022-11-04T08:10:10.137Z,18.61
2022-11-04T08:12:38.255Z,19.18
2022-11-04T08:15:06.302Z,19.10
2022-11-04T08:17:33.154Z,19.43
2022-11-04T08:20:00.857Z,19.53
2022-11-04T08:22:32.767Z,19.40
2022-11-04T08:24:59.984Z,19.56
2022-11-04T08:27:26.773Z,19.63
2022-11-04T08:29:53.637Z,19.95
2022-11-04T08:32:20.363Z,19.87
2022-11-04T08:34:47.120Z,19.76
2022-11-04T08:37:15.687Z,18.42
2022-11-04T08:39:43.318Z,19.37
2022-11-04T08:42:10.448Z,19.55
2022-11-04T08:44:39.683Z,19.79
2022-11-04T08:47:06.395Z,20.11
2022-11-04T08:49:38.034Z,19.79
2022-11-04T08:52:05.743Z,20.23
2022-11-04T08:54:32.546Z,20.03
2022-11-04T08:56:59.314Z,20.40
2022-11-04T08:59:26.256Z,21.03
2022-11-04T09:01:53.243Z,20.96
2022-11-04T09:04:20.098Z,20.31
2022-11-04T09:06:47.777Z,20.65
2022-11-04T09:09:17.164Z,21.46
2022-11-04T09:11:45.134Z,21.32
2022-11-04T09:14:12.847Z,21.38
2022-11-04T09:16:41.070Z,21.29
2022-11-04T09:19:08.976Z,21.84
2022-11-04T09:21:36.447Z,21.52
2022-11-04T09:24:03.481Z,22.31
2022-11-04T09:26:30.385Z,22.36
2022-11-04T09:28:58.872Z,21.41
2022-11-04T09:31:28.103Z,22.06
2022-11-04T09:33:55.672Z,22.01
2022-11-04T09:36:22.776Z,22.11
2022-11-04T09:38:49.942Z,22.39
2022-11-04T09:41:42.722Z,22.63
2022-11-04T09:45:14.905Z,22.34
2022-11-04T09:47:32.435Z,22.39
2022-11-04T09:50:01.361Z,22.14
2022-11-04T09:52:32.983Z,22.04
2022-11-04T09:55:24.634Z,22.70
2022-11-04T09:57:55.922Z,22.05
2022-11-04T10:00:23.212Z,21.60
2022-11-04T10:03:16.013Z,22.13
2022-11-04T10:06:04.750Z,22.49
2022-11-04T10:08:46.466Z,22.91
2022-11-04T10:11:21.624Z,23.58
2022-11-04T10:13:57.443Z,22.18
2022-11-04T10:16:26.918Z,22.49
2022-11-04T10:19:08.643Z,22.66
2022-11-04T10:21:44.932Z,22.93
2022-11-04T10:24:30.172Z,22.30
2022-11-04T10:27:09.855Z,22.43
2022-11-04T10:29:50.394Z,22.45
2022-11-04T10:32:31.766Z,22.09
2022-11-04T10:35:13.285Z,22.50
2022-11-04T10:37:40.414Z,22.34
2022-11-04T10:40:22.419Z,23.11
2022-11-04T10:42:51.691Z,23.01
2022-11-04T10:45:24.934Z,23.54
2022-11-04T10:48:06.018Z,22.80
2022-11-04T10:50:41.219Z,22.70
2022-11-04T10:53:11.245Z,23.39
2022-11-04T10:55:47.047Z,23.37
2022-11-04T10:58:30.702Z,23.49
2022-11-04T11:00:58.265Z,23.16
2022-11-04T11:03:34.437Z,23.29
2022-11-04T11:06:13.109Z,23.51
2022-11-04T11:08:42.391Z,23.40
2022-11-04T11:11:10.063Z,23.67
2022-11-04T11:13:43.161Z,23.87
2022-11-04T11:16:17.527Z,23.52
2022-11-04T11:18:44.578Z,23.76
2022-11-04T11:21:21.312Z,23.81
2022-11-04T11:23:51.140Z,23.45
2022-11-04T11:26:32.267Z,23.25
2022-11-04T11:29:04.348Z,24.10
2022-11-04T11:31:39.390Z,24.08
2022-11-04T11:34:26.778Z,24.57
2022-11-04T11:36:56.509Z,24.45
2022-11-04T11:39:32.446Z,24.91
2022-11-04T11:42:02.261Z,25.13
2022-11-04T11:44:38.665Z,25.65
2022-11-04T11:47:16.917Z,25.77
2022-11-04T11:49:43.778Z,25.73
2022-11-04T11:52:17.879Z,25.47
2022-11-04T11:54:49.510Z,25.23
2022-11-04T11:57:34.668Z,25.28
2022-11-04T12:03:01.151Z,25.35
2022-11-04T12:11:48.925Z,25.19
2022-11-04T12:14:32.246Z,25.13
2022-11-04T12:17:20.891Z,24.82
2022-11-04T12:20:30.805Z,25.38
2022-11-04T12:23:21.791Z,25.63
2022-11-04T12:26:13.057Z,25.66
2022-11-04T12:29:10.236Z,25.77
2022-11-04T12:32:01.182Z,26.51
2022-11-04T12:35:05.380Z,26.29
2022-11-04T12:37:46.951Z,25.58
2022-11-04T12:40:33.955Z,25.25
2022-11-04T12:43:15.872Z,24.62
2022-11-04T12:45:55.291Z,25.06
2022-11-04T12:48:41.079Z,25.19
2022-11-04T12:51:25.646Z,25.39
2022-11-04T12:54:24.598Z,25.09
2022-11-04T12:57:11.702Z,24.59
2022-11-04T12:59:54.541Z,24.73
2022-11-04T13:02:39.800Z,25.03
2022-11-04T13:05:30.448Z,24.86
2022-11-04T13:08:13.976Z,24.70
2022-11-04T13:10:44.283Z,23.92
2022-11-04T13:13:15.053Z,24.19
2022-11-04T13:15:55.837Z,24.22
2022-11-04T13:18:26.153Z,24.35
2022-11-04T13:21:02.658Z,24.44
2022-11-04T13:23:36.784Z,24.10
2022-11-04T13:26:07.237Z,24.30
2022-11-04T13:28:37.266Z,24.26
2022-11-04T13:31:37.455Z,24.07
2022-11-04T13:34:20.526Z,24.43
2022-11-04T13:37:17.238Z,25.27
2022-11-04T13:39:51.539Z,26.03
2022-11-04T13:42:43.022Z,25.93
2022-11-04T13:45:17.160Z,25.49
2022-11-04T13:47:51.246Z,25.21
2022-11-04T13:50:36.785Z,24.32
2022-11-04T13:53:06.553Z,23.95
2022-11-04T13:55:35.551Z,24.23
2022-11-04T13:58:10.106Z,24.18
2022-11-04T14:00:37.650Z,24.15
2022-11-04T14:03:36.377Z,23.68
2022-11-04T14:06:06.888Z,23.64
2022-11-04T14:08:34.387Z,23.81
2022-11-04T14:11:05.279Z,23.93
2022-11-04T14:13:35.271Z,23.85
2022-11-04T14:16:04.785Z,23.76
2022-11-04T14:18:35.761Z,23.68
2022-11-04T14:21:10.486Z,23.30
2022-11-04T14:23:38.834Z,23.30
2022-11-04T14:26:11.726Z,23.05
2022-11-04T14:28:44.103Z,23.09
2022-11-04T14:31:17.765Z,23.17
2022-11-04T14:33:55.056Z,22.96
2022-11-04T14:36:21.833Z,22.74
2022-11-04T14:39:10.065Z,22.98
2022-11-04T14:41:40.090Z,22.86
2022-11-04T14:44:16.893Z,22.77
2022-11-04T14:46:46.533Z,22.56
2022-11-04T14:49:39.674Z,22.55
2022-11-04T14:52:19.535Z,22.55
2022-11-04T14:54:47.255Z,22.18
2022-11-04T14:57:19.543Z,22.40
2022-11-04T14:59:47.583Z,22.28
2022-11-04T15:02:25.626Z,22.42
2022-11-04T15:04:59.465Z,22.30
2022-11-04T15:07:34.305Z,22.35
2022-11-04T15:10:03.523Z,22.27
2022-11-04T15:12:48.732Z,22.09
2022-11-04T15:15:39.361Z,22.12
2022-11-04T15:18:09.738Z,21.92
2022-11-04T15:20:44.917Z,22.05
2022-11-04T15:23:16.259Z,21.51
2022-11-04T15:25:48.279Z,21.87
2022-11-04T15:28:21.298Z,21.66
2022-11-04T15:31:01.434Z,21.60
2022-11-04T15:33:29.474Z,21.47
2022-11-04T15:35:57.638Z,21.52
2022-11-04T15:38:28.686Z,21.44
2022-11-04T15:41:17.187Z,21.47
2022-11-04T15:43:44.608Z,21.47
2022-11-04T15:46:18.392Z,21.27
2022-11-04T15:49:20.903Z,21.27
2022-11-04T15:51:48.273Z,21.23
2022-11-04T15:54:23.398Z,21.35
2022-11-04T15:56:55.271Z,21.12
2022-11-04T15:59:28.437Z,20.77
2022-11-04T16:01:55.847Z,20.37
2022-11-04T16:04:26.331Z,20.58
2022-11-04T16:07:19.278Z,20.53
2022-11-04T16:09:50.692Z,20.34
2022-11-04T16:12:37.609Z,20.48
2022-11-04T16:15:04.793Z,20.23
2022-11-04T16:17:31.847Z,20.25
2022-11-04T16:20:06.017Z,20.14
2022-11-04T16:22:38.881Z,20.41
2022-11-04T16:25:08.228Z,20.54
2022-11-04T16:27:36.131Z,20.09
2022-11-04T16:30:05.912Z,20.09
2022-11-04T16:32:44.521Z,20.06
2022-11-04T16:35:26.535Z,20.00
2022-11-04T16:37:55.977Z,19.79
2022-11-04T16:40:24.662Z,19.93
2022-11-04T16:42:52.853Z,19.87
2022-11-04T16:45:24.043Z,19.88
2022-11-04T16:47:51.760Z,19.81
2022-11-04T16:50:18.976Z,19.73
2022-11-04T16:52:45.809Z,19.67
2022-11-04T16:55:14.904Z,19.65
2022-11-04T16:57:41.877Z,19.63
2022-11-04T17:00:09.320Z,19.30
2022-11-04T17:02:41.192Z,19.47
2022-11-04T17:05:09.085Z,19.28
2022-11-04T17:07:53.261Z,19.30
2022-11-04T17:10:27.995Z,19.34
2022-11-04T17:12:55.546Z,19.50
2022-11-04T17:15:22.669Z,19.16
2022-11-04T17:17:50.000Z,19.12
2022-11-04T17:20:18.995Z,18.94
2022-11-04T17:22:47.384Z,18.99
2022-11-04T17:25:26.068Z,18.59
2022-11-04T17:27:53.708Z,18.75
2022-11-04T17:30:22.630Z,18.89
2022-11-04T17:32:50.151Z,19.08
2022-11-04T17:35:17.157Z,18.83
2022-11-04T17:37:44.564Z,18.65
2022-11-04T17:40:17.796Z,18.98
2022-11-04T17:43:10.353Z,18.57
2022-11-04T17:45:39.368Z,18.71
2022-11-04T17:48:06.607Z,18.97
2022-11-04T17:50:33.966Z,18.92
2022-11-04T17:53:00.938Z,19.09
2022-11-04T17:55:28.045Z,18.92
2022-11-04T17:57:55.549Z,19.00
2022-11-04T18:00:25.889Z,19.12
2022-11-04T18:02:53.034Z,19.08
2022-11-04T18:05:21.302Z,19.05
2022-11-04T18:07:48.040Z,18.82
2022-11-04T18:10:14.880Z,18.93
2022-11-04T18:12:41.802Z,19.08
2022-11-04T18:15:11.666Z,19.06
2022-11-04T18:17:43.655Z,19.07
2022-11-04T18:20:14.608Z,19.05
2022-11-04T18:22:42.561Z,18.64
2022-11-04T18:25:10.185Z,18.61
2022-11-04T18:27:37.419Z,18.68
2022-11-04T18:30:05.633Z,18.93
2022-11-04T18:32:32.491Z,18.27
2022-11-04T18:34:59.249Z,18.58
2022-11-04T18:37:26.365Z,18.59
2022-11-04T18:39:54.108Z,18.68
2022-11-04T18:42:21.086Z,18.78
2022-11-04T18:44:47.782Z,18.79
2022-11-04T18:47:14.585Z,18.85
2022-11-04T18:49:42.792Z,18.81
2022-11-04T18:52:09.534Z,18.89
2022-11-04T18:54:36.371Z,18.71
2022-11-04T18:57:04.747Z,18.65
2022-11-04T18:59:31.646Z,18.65
2022-11-04T19:01:58.591Z,18.68
2022-11-04T19:04:25.377Z,18.71
2022-11-04T19:06:52.231Z,18.61
2022-11-04T19:09:45.353Z,18.63
2022-11-04T19:12:25.362Z,18.47
2022-11-04T19:14:52.879Z,18.46
2022-11-04T19:17:20.076Z,18.45
2022-11-04T19:19:46.955Z,18.41
2022-11-04T19:22:14.873Z,18.31
2022-11-04T19:24:41.697Z,18.48
2022-11-04T19:27:08.568Z,18.41
2022-11-04T19:29:35.714Z,18.31
2022-11-04T19:32:02.428Z,18.10
2022-11-04T19:34:29.378Z,18.24
2022-11-04T19:36:56.215Z,18.24
2022-11-04T19:39:22.959Z,18.41
2022-11-04T19:42:08.182Z,18.19
2022-11-04T19:44:35.177Z,18.16
2022-11-04T19:47:01.988Z,18.30
2022-11-04T19:49:31.734Z,18.28
2022-11-04T19:51:59.616Z,18.26
2022-11-04T19:54:28.245Z,17.80
2022-11-04T19:56:55.692Z,17.96
2022-11-04T19:59:22.646Z,18.09
2022-11-04T20:01:50.646Z,18.05
2022-11-04T20:04:17.739Z,18.28
2022-11-04T20:06:44.512Z,18.11
2022-11-04T20:09:11.441Z,18.06
2022-11-04T20:11:59.354Z,18.37
2022-11-04T20:14:27.262Z,18.41
2022-11-04T20:16:55.005Z,18.33
2022-11-04T20:19:23.055Z,17.94
2022-11-04T20:21:50.748Z,17.68
2022-11-04T20:24:18.099Z,17.96
2022-11-04T20:26:46.982Z,17.68
2022-11-04T20:29:16.119Z,17.78
2022-11-04T20:31:44.058Z,18.14
2022-11-04T20:34:12.599Z,17.80
2022-11-04T20:36:39.823Z,18.08
2022-11-04T20:39:17.741Z,18.25
2022-11-04T20:41:45.762Z,17.92
2022-11-04T20:44:14.381Z,18.26
2022-11-04T20:46:42.070Z,17.85
2022-11-04T20:49:08.848Z,18.08
2022-11-04T20:51:38.614Z,18.15
2022-11-04T20:54:07.060Z,18.24
2022-11-04T20:56:36.988Z,18.06
2022-11-04T20:59:06.093Z,18.08
2022-11-04T21:01:39.273Z,17.04
2022-11-04T21:04:11.305Z,17.60
2022-11-04T21:06:39.698Z,17.48
2022-11-04T21:09:09.229Z,17.26
2022-11-04T21:11:36.468Z,17.30
2022-11-04T21:14:03.760Z,17.03
2022-11-04T21:16:30.570Z,17.03
2022-11-04T21:18:57.953Z,17.11
2022-11-04T21:21:27.841Z,16.59
2022-11-04T21:24:03.373Z,17.11
2022-11-04T21:26:34.044Z,16.69
2022-11-04T21:29:03.957Z,16.14
2022-11-04T21:31:32.302Z,16.02
2022-11-04T21:34:00.699Z,16.28
2022-11-04T21:36:27.849Z,16.43
2022-11-04T21:38:54.569Z,16.52
2022-11-04T21:41:26.264Z,16.64
2022-11-04T21:43:58.277Z,17.07
2022-11-04T21:46:27.042Z,16.80
2022-11-04T21:48:55.530Z,16.98
2022-11-04T21:51:24.464Z,16.66
2022-11-04T21:53:52.883Z,16.63
2022-11-04T21:56:23.106Z,16.98
2022-11-04T21:58:51.768Z,17.31
2022-11-04T22:01:21.356Z,16.90
2022-11-04T22:03:53.830Z,17.20
2022-11-04T22:06:21.400Z,17.15
2022-11-04T22:08:54.016Z,17.30
2022-11-04T22:11:24.209Z,17.17
2022-11-04T22:13:56.921Z,16.61
2022-11-04T22:16:27.205Z,16.98
2022-11-04T22:18:55.838Z,16.49
2022-11-04T22:21:24.699Z,16.69
2022-11-04T22:23:52.138Z,17.08
2022-11-04T22:26:22.010Z,17.20
2022-11-04T22:28:49.007Z,17.12
2022-11-04T22:31:22.106Z,17.21
2022-11-04T22:33:50.678Z,17.05
2022-11-04T22:36:18.103Z,16.95
2022-11-04T22:38:45.036Z,16.62
2022-11-04T22:41:18.445Z,16.49
2022-11-04T22:43:45.420Z,16.66
2022-11-04T22:46:15.687Z,17.00
2022-11-04T22:48:43.070Z,17.03
2022-11-04T22:51:10.447Z,17.10
2022-11-04T22:53:38.499Z,17.14
2022-11-04T22:56:07.503Z,16.69
2022-11-04T22:58:34.803Z,16.40
2022-11-04T23:01:11.522Z,16.94
2022-11-04T23:03:39.382Z,16.88
2022-11-04T23:06:07.346Z,16.91
2022-11-04T23:08:35.838Z,16.92
2022-11-04T23:11:27.758Z,16.71
2022-11-04T23:14:20.784Z,16.89
2022-11-04T23:17:08.532Z,16.86
2022-11-04T23:19:36.759Z,16.64
2022-11-04T23:22:22.523Z,16.59
2022-11-04T23:25:09.717Z,16.56
2022-11-04T23:28:09.569Z,16.06
2022-11-04T23:30:50.537Z,16.55
2022-11-04T23:33:17.542Z,16.65
2022-11-04T23:36:06.353Z,16.41
2022-11-04T23:38:35.407Z,16.59
2022-11-04T23:41:24.655Z,16.48
2022-11-04T23:43:51.698Z,15.83
2022-11-04T23:46:42.622Z,16.27
2022-11-04T23:49:30.453Z,16.37
2022-11-04T23:52:16.242Z,15.97
2022-11-04T23:55:01.654Z,16.21
2022-11-04T23:57:47.326Z,16.20
